Koppie Airport

Jump to: basic info | weather | runways | comments

Related pages: nearby airports | nearby navaids | notams | map

Basic information (top)

Codes: 7IS5
Location: lon 42.121399, lat -88.378098, elev 890 ft / 271 m msl
Status: small_airport

Weather (top)

Current conditions for Dupage Airport 14nm (26km) SSE (rec'd 2015/03/27 05:52Z):

KDPA 270552Z 01008KT 10SM OVC055 M01/M09 A3007 RMK AO2 SLP189 T10061089 10028 21006 400561006 50007

Airport forecast for Dupage Airport 14nm (26km) SSE (rec'd 2015/03/27 06:33Z):

TAF KDPA 270531Z 2706/2806 35010KT P6SM VCSH OVC035 
      TEMPO 2707/2710 5SM -SN OVC030 
     FM271200 35011KT P6SM OVC040 
     FM271500 35013G18KT P6SM BKN050 
     FM272300 03010KT P6SM FEW050

Runways (top)

N/S: 2,300 x 100 ft (701 x 30 m) — grass — not lighted

Latest comments (top)

No comments yet for Koppie Airport

More... (top)

See also NOTAMs and nearby airports and navaids, or visit the Koppie Airport page at the main OurAirports website..